sensor_id;sensor_type;location;lat;lon;timestamp;P1;P2;P0
64229;PMS5003;50547;49.498;0.092;2023-09-19T00:00:20;7;7;
64229;PMS5003;50547;49.498;0.092;2023-09-19T00:02:52;8;8;
64229;PMS5003;50547;49.498;0.092;2023-09-19T00:05:21;7;7;
64229;PMS5003;50547;49.498;0.092;2023-09-19T00:07:47;7;7;
64229;PMS5003;50547;49.498;0.092;2023-09-19T00:10:16;7;7;
64229;PMS5003;50547;49.498;0.092;2023-09-19T00:12:45;7;7;
64229;PMS5003;50547;49.498;0.092;2023-09-19T00:15:14;5;5;
64229;PMS5003;50547;49.498;0.092;2023-09-19T00:17:44;8;8;
64229;PMS5003;50547;49.498;0.092;2023-09-19T00:20:13;8;8;
64229;PMS5003;50547;49.498;0.092;2023-09-19T00:22:42;8;8;
64229;PMS5003;50547;49.498;0.092;2023-09-19T00:25:12;8;8;
64229;PMS5003;50547;49.498;0.092;2023-09-19T00:27:41;8;8;
64229;PMS5003;50547;49.498;0.092;2023-09-19T00:30:11;7;7;
64229;PMS5003;50547;49.498;0.092;2023-09-19T00:32:41;8;8;
64229;PMS5003;50547;49.498;0.092;2023-09-19T00:35:11;8;8;
64229;PMS5003;50547;49.498;0.092;2023-09-19T00:37:40;7;7;
64229;PMS5003;50547;49.498;0.092;2023-09-19T00:40:10;7;7;
64229;PMS5003;50547;49.498;0.092;2023-09-19T00:42:39;8;8;
64229;PMS5003;50547;49.498;0.092;2023-09-19T00:45:09;8;8;
64229;PMS5003;50547;49.498;0.092;2023-09-19T00:47:39;8;8;
64229;PMS5003;50547;49.498;0.092;2023-09-19T00:50:10;7;7;
64229;PMS5003;50547;49.498;0.092;2023-09-19T00:52:40;8;8;
64229;PMS5003;50547;49.498;0.092;2023-09-19T00:55:11;7;7;
64229;PMS5003;50547;49.498;0.092;2023-09-19T00:57:43;7;7;
64229;PMS5003;50547;49.498;0.092;2023-09-19T01:00:12;7;7;
64229;PMS5003;50547;49.498;0.092;2023-09-19T01:02:42;9;9;
64229;PMS5003;50547;49.498;0.092;2023-09-19T01:05:12;7;7;
64229;PMS5003;50547;49.498;0.092;2023-09-19T01:07:41;7;7;
64229;PMS5003;50547;49.498;0.092;2023-09-19T01:10:11;7;7;
64229;PMS5003;50547;49.498;0.092;2023-09-19T01:12:45;8;8;
64229;PMS5003;50547;49.498;0.092;2023-09-19T01:15:31;7;7;
64229;PMS5003;50547;49.498;0.092;2023-09-19T01:18:11;7;7;
64229;PMS5003;50547;49.498;0.092;2023-09-19T01:20:53;8;8;
64229;PMS5003;50547;49.498;0.092;2023-09-19T01:23:28;7;7;
64229;PMS5003;50547;49.498;0.092;2023-09-19T01:26:16;6;6;
64229;PMS5003;50547;49.498;0.092;2023-09-19T01:29:01;7;7;
64229;PMS5003;50547;49.498;0.092;2023-09-19T01:31:46;7;7;
64229;PMS5003;50547;49.498;0.092;2023-09-19T01:34:17;7;7;
64229;PMS5003;50547;49.498;0.092;2023-09-19T01:36:47;8;8;
64229;PMS5003;50547;49.498;0.092;2023-09-19T01:39:16;8;8;
64229;PMS5003;50547;49.498;0.092;2023-09-19T01:41:48;8;8;
64229;PMS5003;50547;49.498;0.092;2023-09-19T01:44:26;7;7;
64229;PMS5003;50547;49.498;0.092;2023-09-19T01:46:59;8;8;
64229;PMS5003;50547;49.498;0.092;2023-09-19T01:49:37;7;7;
64229;PMS5003;50547;49.498;0.092;2023-09-19T01:52:12;7;7;
64229;PMS5003;50547;49.498;0.092;2023-09-19T01:54:45;6;6;
64229;PMS5003;50547;49.498;0.092;2023-09-19T01:57:20;8;8;
64229;PMS5003;50547;49.498;0.092;2023-09-19T01:59:58;10;10;
64229;PMS5003;50547;49.498;0.092;2023-09-19T02:02:30;7;7;
64229;PMS5003;50547;49.498;0.092;2023-09-19T02:04:59;7;7;
64229;PMS5003;50547;49.498;0.092;2023-09-19T02:07:28;7;7;
64229;PMS5003;50547;49.498;0.092;2023-09-19T02:09:57;7;7;
64229;PMS5003;50547;49.498;0.092;2023-09-19T02:12:27;7;7;
64229;PMS5003;50547;49.498;0.092;2023-09-19T02:14:56;7;7;
64229;PMS5003;50547;49.498;0.092;2023-09-19T02:17:25;7;7;
64229;PMS5003;50547;49.498;0.092;2023-09-19T02:19:54;6;6;
64229;PMS5003;50547;49.498;0.092;2023-09-19T02:22:23;7;7;
64229;PMS5003;50547;49.498;0.092;2023-09-19T02:24:53;8;8;
64229;PMS5003;50547;49.498;0.092;2023-09-19T02:27:22;7;7;
64229;PMS5003;50547;49.498;0.092;2023-09-19T02:29:51;7;7;
64229;PMS5003;50547;49.498;0.092;2023-09-19T02:32:21;7;7;
64229;PMS5003;50547;49.498;0.092;2023-09-19T02:34:50;8;8;
64229;PMS5003;50547;49.498;0.092;2023-09-19T02:37:19;7;7;
64229;PMS5003;50547;49.498;0.092;2023-09-19T02:39:48;7;7;
64229;PMS5003;50547;49.498;0.092;2023-09-19T02:42:18;7;7;
64229;PMS5003;50547;49.498;0.092;2023-09-19T02:44:47;8;8;
64229;PMS5003;50547;49.498;0.092;2023-09-19T02:47:16;7;7;
64229;PMS5003;50547;49.498;0.092;2023-09-19T02:49:45;7;7;
64229;PMS5003;50547;49.498;0.092;2023-09-19T02:52:14;7;7;
64229;PMS5003;50547;49.498;0.092;2023-09-19T02:54:43;7;7;
64229;PMS5003;50547;49.498;0.092;2023-09-19T02:57:12;7;7;
64229;PMS5003;50547;49.498;0.092;2023-09-19T02:59:42;6;6;
64229;PMS5003;50547;49.498;0.092;2023-09-19T03:02:11;7;7;
64229;PMS5003;50547;49.498;0.092;2023-09-19T03:04:37;7;7;
64229;PMS5003;50547;49.498;0.092;2023-09-19T03:07:06;7;7;
64229;PMS5003;50547;49.498;0.092;2023-09-19T03:09:35;6;6;
64229;PMS5003;50547;49.498;0.092;2023-09-19T03:12:05;6;6;
64229;PMS5003;50547;49.498;0.092;2023-09-19T03:14:35;6;6;
64229;PMS5003;50547;49.498;0.092;2023-09-19T03:17:04;7;7;
64229;PMS5003;50547;49.498;0.092;2023-09-19T03:19:33;7;7;
64229;PMS5003;50547;49.498;0.092;2023-09-19T03:22:02;8;8;
64229;PMS5003;50547;49.498;0.092;2023-09-19T03:24:31;7;7;
64229;PMS5003;50547;49.498;0.092;2023-09-19T03:27:01;7;7;
64229;PMS5003;50547;49.498;0.092;2023-09-19T03:29:30;6;6;
64229;PMS5003;50547;49.498;0.092;2023-09-19T03:31:59;7;7;
64229;PMS5003;50547;49.498;0.092;2023-09-19T03:34:28;7;7;
64229;PMS5003;50547;49.498;0.092;2023-09-19T03:36:57;6;6;
64229;PMS5003;50547;49.498;0.092;2023-09-19T03:39:27;7;7;
64229;PMS5003;50547;49.498;0.092;2023-09-19T03:41:56;7;7;
64229;PMS5003;50547;49.498;0.092;2023-09-19T03:44:25;7;7;
64229;PMS5003;50547;49.498;0.092;2023-09-19T03:46:54;6;6;
64229;PMS5003;50547;49.498;0.092;2023-09-19T03:49:23;7;7;
64229;PMS5003;50547;49.498;0.092;2023-09-19T03:51:52;7;7;
64229;PMS5003;50547;49.498;0.092;2023-09-19T03:54:21;5;5;
64229;PMS5003;50547;49.498;0.092;2023-09-19T03:56:50;6;6;
64229;PMS5003;50547;49.498;0.092;2023-09-19T03:59:20;7;7;
64229;PMS5003;50547;49.498;0.092;2023-09-19T04:01:49;6;6;
64229;PMS5003;50547;49.498;0.092;2023-09-19T04:04:18;7;7;
64229;PMS5003;50547;49.498;0.092;2023-09-19T04:06:47;8;8;
64229;PMS5003;50547;49.498;0.092;2023-09-19T04:09:16;7;7;
64229;PMS5003;50547;49.498;0.092;2023-09-19T04:11:45;7;7;
64229;PMS5003;50547;49.498;0.092;2023-09-19T04:14:14;6;6;
64229;PMS5003;50547;49.498;0.092;2023-09-19T04:16:43;7;7;
64229;PMS5003;50547;49.498;0.092;2023-09-19T04:19:12;7;7;
64229;PMS5003;50547;49.498;0.092;2023-09-19T04:21:41;7;7;
64229;PMS5003;50547;49.498;0.092;2023-09-19T04:24:11;7;7;
64229;PMS5003;50547;49.498;0.092;2023-09-19T04:26:40;7;7;
64229;PMS5003;50547;49.498;0.092;2023-09-19T04:29:09;5;5;
64229;PMS5003;50547;49.498;0.092;2023-09-19T04:31:38;7;7;
64229;PMS5003;50547;49.498;0.092;2023-09-19T04:34:07;6;6;
64229;PMS5003;50547;49.498;0.092;2023-09-19T04:36:36;6;6;
64229;PMS5003;50547;49.498;0.092;2023-09-19T04:39:05;6;6;
64229;PMS5003;50547;49.498;0.092;2023-09-19T04:41:34;6;6;
64229;PMS5003;50547;49.498;0.092;2023-09-19T04:44:04;6;6;
64229;PMS5003;50547;49.498;0.092;2023-09-19T04:46:33;6;6;
64229;PMS5003;50547;49.498;0.092;2023-09-19T04:49:02;4;4;
64229;PMS5003;50547;49.498;0.092;2023-09-19T04:51:31;5;5;
64229;PMS5003;50547;49.498;0.092;2023-09-19T04:53:59;5;5;
64229;PMS5003;50547;49.498;0.092;2023-09-19T04:56:28;7;7;
64229;PMS5003;50547;49.498;0.092;2023-09-19T04:58:57;6;6;
64229;PMS5003;50547;49.498;0.092;2023-09-19T05:01:26;5;5;
64229;PMS5003;50547;49.498;0.092;2023-09-19T05:03:55;4;4;
64229;PMS5003;50547;49.498;0.092;2023-09-19T05:06:24;5;5;
64229;PMS5003;50547;49.498;0.092;2023-09-19T05:08:53;7;7;
64229;PMS5003;50547;49.498;0.092;2023-09-19T05:11:23;6;6;
64229;PMS5003;50547;49.498;0.092;2023-09-19T05:13:49;4;4;
64229;PMS5003;50547;49.498;0.092;2023-09-19T05:16:18;5;5;
64229;PMS5003;50547;49.498;0.092;2023-09-19T05:18:48;7;7;
64229;PMS5003;50547;49.498;0.092;2023-09-19T05:21:17;5;5;
64229;PMS5003;50547;49.498;0.092;2023-09-19T05:23:46;5;5;
64229;PMS5003;50547;49.498;0.092;2023-09-19T05:26:15;4;4;
64229;PMS5003;50547;49.498;0.092;2023-09-19T05:28:44;4;4;
64229;PMS5003;50547;49.498;0.092;2023-09-19T05:31:13;5;5;
64229;PMS5003;50547;49.498;0.092;2023-09-19T05:33:43;6;6;
64229;PMS5003;50547;49.498;0.092;2023-09-19T05:36:12;6;6;
64229;PMS5003;50547;49.498;0.092;2023-09-19T05:38:41;4;4;
64229;PMS5003;50547;49.498;0.092;2023-09-19T05:41:10;4;4;
64229;PMS5003;50547;49.498;0.092;2023-09-19T05:43:39;5;5;
64229;PMS5003;50547;49.498;0.092;2023-09-19T05:46:08;5;5;
64229;PMS5003;50547;49.498;0.092;2023-09-19T05:48:37;4;4;
64229;PMS5003;50547;49.498;0.092;2023-09-19T05:51:07;4;4;
64229;PMS5003;50547;49.498;0.092;2023-09-19T05:53:36;4;4;
64229;PMS5003;50547;49.498;0.092;2023-09-19T05:56:05;4;4;
64229;PMS5003;50547;49.498;0.092;2023-09-19T05:58:34;5;5;
64229;PMS5003;50547;49.498;0.092;2023-09-19T06:01:03;5;5;
64229;PMS5003;50547;49.498;0.092;2023-09-19T06:03:32;4;4;
64229;PMS5003;50547;49.498;0.092;2023-09-19T06:06:01;5;5;
64229;PMS5003;50547;49.498;0.092;2023-09-19T06:08:31;5;5;
64229;PMS5003;50547;49.498;0.092;2023-09-19T06:11:00;4;4;
64229;PMS5003;50547;49.498;0.092;2023-09-19T06:13:29;4;4;
64229;PMS5003;50547;49.498;0.092;2023-09-19T06:15:58;6;6;
64229;PMS5003;50547;49.498;0.092;2023-09-19T06:18:27;4;4;
64229;PMS5003;50547;49.498;0.092;2023-09-19T06:20:56;5;5;
64229;PMS5003;50547;49.498;0.092;2023-09-19T06:23:25;7;7;
64229;PMS5003;50547;49.498;0.092;2023-09-19T06:25:55;5;5;
64229;PMS5003;50547;49.498;0.092;2023-09-19T06:28:24;5;5;
64229;PMS5003;50547;49.498;0.092;2023-09-19T06:30:53;5;5;
64229;PMS5003;50547;49.498;0.092;2023-09-19T06:33:23;5;5;
64229;PMS5003;50547;49.498;0.092;2023-09-19T06:35:52;5;5;
64229;PMS5003;50547;49.498;0.092;2023-09-19T06:38:21;5;5;
64229;PMS5003;50547;49.498;0.092;2023-09-19T06:40:50;4;4;
64229;PMS5003;50547;49.498;0.092;2023-09-19T06:43:19;4;4;
64229;PMS5003;50547;49.498;0.092;2023-09-19T06:45:49;4;4;
64229;PMS5003;50547;49.498;0.092;2023-09-19T06:48:18;5;5;
64229;PMS5003;50547;49.498;0.092;2023-09-19T06:50:47;6;6;
64229;PMS5003;50547;49.498;0.092;2023-09-19T06:53:16;4;4;
64229;PMS5003;50547;49.498;0.092;2023-09-19T06:55:45;5;5;
64229;PMS5003;50547;49.498;0.092;2023-09-19T06:58:14;4;4;
64229;PMS5003;50547;49.498;0.092;2023-09-19T07:00:43;6;6;
64229;PMS5003;50547;49.498;0.092;2023-09-19T07:03:13;6;6;
64229;PMS5003;50547;49.498;0.092;2023-09-19T07:05:42;5;5;
64229;PMS5003;50547;49.498;0.092;2023-09-19T07:08:11;5;5;
64229;PMS5003;50547;49.498;0.092;2023-09-19T07:10:41;5;5;
64229;PMS5003;50547;49.498;0.092;2023-09-19T07:13:11;4;4;
64229;PMS5003;50547;49.498;0.092;2023-09-19T07:15:40;5;5;
64229;PMS5003;50547;49.498;0.092;2023-09-19T07:18:09;5;5;
64229;PMS5003;50547;49.498;0.092;2023-09-19T07:20:38;6;6;
64229;PMS5003;50547;49.498;0.092;2023-09-19T07:23:07;5;5;
64229;PMS5003;50547;49.498;0.092;2023-09-19T07:25:36;5;5;
64229;PMS5003;50547;49.498;0.092;2023-09-19T07:28:05;5;5;
64229;PMS5003;50547;49.498;0.092;2023-09-19T07:30:35;5;5;
64229;PMS5003;50547;49.498;0.092;2023-09-19T07:33:05;4;4;
64229;PMS5003;50547;49.498;0.092;2023-09-19T07:35:34;5;5;
64229;PMS5003;50547;49.498;0.092;2023-09-19T07:38:04;6;6;
64229;PMS5003;50547;49.498;0.092;2023-09-19T07:40:33;5;5;
64229;PMS5003;50547;49.498;0.092;2023-09-19T07:43:04;6;6;
64229;PMS5003;50547;49.498;0.092;2023-09-19T07:45:33;6;6;
64229;PMS5003;50547;49.498;0.092;2023-09-19T07:48:02;7;7;
64229;PMS5003;50547;49.498;0.092;2023-09-19T07:50:33;6;6;
64229;PMS5003;50547;49.498;0.092;2023-09-19T07:53:03;5;5;
64229;PMS5003;50547;49.498;0.092;2023-09-19T07:55:32;6;6;
64229;PMS5003;50547;49.498;0.092;2023-09-19T07:58:16;5;5;
64229;PMS5003;50547;49.498;0.092;2023-09-19T08:00:45;7;7;
64229;PMS5003;50547;49.498;0.092;2023-09-19T08:03:19;7;7;
64229;PMS5003;50547;49.498;0.092;2023-09-19T08:05:48;7;7;
64229;PMS5003;50547;49.498;0.092;2023-09-19T08:08:17;5;5;
64229;PMS5003;50547;49.498;0.092;2023-09-19T08:10:44;5;5;
64229;PMS5003;50547;49.498;0.092;2023-09-19T08:13:13;6;6;
64229;PMS5003;50547;49.498;0.092;2023-09-19T08:15:43;7;7;
64229;PMS5003;50547;49.498;0.092;2023-09-19T08:18:17;7;7;
64229;PMS5003;50547;49.498;0.092;2023-09-19T08:20:50;6;6;
64229;PMS5003;50547;49.498;0.092;2023-09-19T08:23:20;6;6;
64229;PMS5003;50547;49.498;0.092;2023-09-19T08:25:50;7;7;
64229;PMS5003;50547;49.498;0.092;2023-09-19T08:28:24;5;5;
64229;PMS5003;50547;49.498;0.092;2023-09-19T08:30:53;5;5;
64229;PMS5003;50547;49.498;0.092;2023-09-19T08:33:22;5;5;
64229;PMS5003;50547;49.498;0.092;2023-09-19T08:35:51;7;7;
64229;PMS5003;50547;49.498;0.092;2023-09-19T08:38:21;7;7;
64229;PMS5003;50547;49.498;0.092;2023-09-19T08:40:50;6;6;
64229;PMS5003;50547;49.498;0.092;2023-09-19T08:43:21;6;6;
64229;PMS5003;50547;49.498;0.092;2023-09-19T08:45:50;6;6;
64229;PMS5003;50547;49.498;0.092;2023-09-19T08:48:24;7;7;
64229;PMS5003;50547;49.498;0.092;2023-09-19T08:50:57;6;6;
64229;PMS5003;50547;49.498;0.092;2023-09-19T08:53:31;6;6;
64229;PMS5003;50547;49.498;0.092;2023-09-19T08:56:09;6;6;
64229;PMS5003;50547;49.498;0.092;2023-09-19T08:58:42;5;5;
64229;PMS5003;50547;49.498;0.092;2023-09-19T09:01:15;7;7;
64229;PMS5003;50547;49.498;0.092;2023-09-19T09:03:44;10;10;
64229;PMS5003;50547;49.498;0.092;2023-09-19T09:06:16;7;7;
64229;PMS5003;50547;49.498;0.092;2023-09-19T09:08:46;7;7;
64229;PMS5003;50547;49.498;0.092;2023-09-19T09:11:15;7;7;
64229;PMS5003;50547;49.498;0.092;2023-09-19T09:13:45;8;8;
64229;PMS5003;50547;49.498;0.092;2023-09-19T09:16:19;8;8;
64229;PMS5003;50547;49.498;0.092;2023-09-19T09:18:49;7;7;
64229;PMS5003;50547;49.498;0.092;2023-09-19T09:21:18;7;7;
64229;PMS5003;50547;49.498;0.092;2023-09-19T09:23:54;7;7;
64229;PMS5003;50547;49.498;0.092;2023-09-19T09:26:40;7;7;
64229;PMS5003;50547;49.498;0.092;2023-09-19T09:29:13;8;8;
64229;PMS5003;50547;49.498;0.092;2023-09-19T09:31:42;8;8;
64229;PMS5003;50547;49.498;0.092;2023-09-19T09:34:12;7;7;
64229;PMS5003;50547;49.498;0.092;2023-09-19T09:36:41;8;8;
64229;PMS5003;50547;49.498;0.092;2023-09-19T09:39:28;9;9;
64229;PMS5003;50547;49.498;0.092;2023-09-19T09:41:59;7;7;
64229;PMS5003;50547;49.498;0.092;2023-09-19T09:44:28;8;8;
64229;PMS5003;50547;49.498;0.092;2023-09-19T09:46:57;7;7;
64229;PMS5003;50547;49.498;0.092;2023-09-19T09:49:27;7;7;
64229;PMS5003;50547;49.498;0.092;2023-09-19T09:52:00;7;7;
64229;PMS5003;50547;49.498;0.092;2023-09-19T09:54:31;7;7;
64229;PMS5003;50547;49.498;0.092;2023-09-19T09:57:01;7;7;
64229;PMS5003;50547;49.498;0.092;2023-09-19T09:59:47;8;8;
64229;PMS5003;50547;49.498;0.092;2023-09-19T10:02:19;7;7;
64229;PMS5003;50547;49.498;0.092;2023-09-19T10:04:49;7;7;
64229;PMS5003;50547;49.498;0.092;2023-09-19T10:07:26;7;7;
64229;PMS5003;50547;49.498;0.092;2023-09-19T10:09:56;8;8;
64229;PMS5003;50547;49.498;0.092;2023-09-19T10:12:25;7;7;
64229;PMS5003;50547;49.498;0.092;2023-09-19T10:14:57;7;7;
64229;PMS5003;50547;49.498;0.092;2023-09-19T10:17:28;7;7;
64229;PMS5003;50547;49.498;0.092;2023-09-19T10:20:00;7;7;
64229;PMS5003;50547;49.498;0.092;2023-09-19T10:22:30;7;7;
64229;PMS5003;50547;49.498;0.092;2023-09-19T10:25:03;7;7;
64229;PMS5003;50547;49.498;0.092;2023-09-19T10:27:34;7;7;
64229;PMS5003;50547;49.498;0.092;2023-09-19T10:30:06;7;7;
64229;PMS5003;50547;49.498;0.092;2023-09-19T10:32:36;7;7;
64229;PMS5003;50547;49.498;0.092;2023-09-19T10:35:08;7;7;
64229;PMS5003;50547;49.498;0.092;2023-09-19T10:37:40;6;6;
64229;PMS5003;50547;49.498;0.092;2023-09-19T10:40:13;6;6;
64229;PMS5003;50547;49.498;0.092;2023-09-19T10:42:44;6;6;
64229;PMS5003;50547;49.498;0.092;2023-09-19T10:45:17;6;6;
64229;PMS5003;50547;49.498;0.092;2023-09-19T10:47:46;6;6;
64229;PMS5003;50547;49.498;0.092;2023-09-19T10:50:19;7;7;
64229;PMS5003;50547;49.498;0.092;2023-09-19T10:52:54;7;7;
64229;PMS5003;50547;49.498;0.092;2023-09-19T10:55:24;7;7;
64229;PMS5003;50547;49.498;0.092;2023-09-19T10:57:59;7;7;
64229;PMS5003;50547;49.498;0.092;2023-09-19T11:00:28;7;7;
64229;PMS5003;50547;49.498;0.092;2023-09-19T11:03:31;7;7;
64229;PMS5003;50547;49.498;0.092;2023-09-19T11:06:01;7;7;
64229;PMS5003;50547;49.498;0.092;2023-09-19T11:08:37;10;10;
64229;PMS5003;50547;49.498;0.092;2023-09-19T11:11:52;7;7;
64229;PMS5003;50547;49.498;0.092;2023-09-19T11:14:30;8;8;
64229;PMS5003;50547;49.498;0.092;2023-09-19T11:17:38;8;8;
64229;PMS5003;50547;49.498;0.092;2023-09-19T11:20:25;8;8;
64229;PMS5003;50547;49.498;0.092;2023-09-19T11:23:30;9;9;
64229;PMS5003;50547;49.498;0.092;2023-09-19T11:26:00;8;8;
64229;PMS5003;50547;49.498;0.092;2023-09-19T11:28:29;9;9;
64229;PMS5003;50547;49.498;0.092;2023-09-19T11:31:00;8;8;
64229;PMS5003;50547;49.498;0.092;2023-09-19T11:35:15;8;8;
64229;PMS5003;50547;49.498;0.092;2023-09-19T11:37:59;9;9;
64229;PMS5003;50547;49.498;0.092;2023-09-19T11:40:28;10;10;
64229;PMS5003;50547;49.498;0.092;2023-09-19T11:42:57;10;10;
64229;PMS5003;50547;49.498;0.092;2023-09-19T11:46:14;10;10;
64229;PMS5003;50547;49.498;0.092;2023-09-19T11:48:43;10;10;
64229;PMS5003;50547;49.498;0.092;2023-09-19T11:51:13;10;10;
64229;PMS5003;50547;49.498;0.092;2023-09-19T11:53:43;10;10;
64229;PMS5003;50547;49.498;0.092;2023-09-19T11:56:15;10;10;
64229;PMS5003;50547;49.498;0.092;2023-09-19T11:58:45;10;10;
64229;PMS5003;50547;49.498;0.092;2023-09-19T12:01:19;9;9;
64229;PMS5003;50547;49.498;0.092;2023-09-19T12:03:50;9;9;
64229;PMS5003;50547;49.498;0.092;2023-09-19T12:06:22;11;11;
64229;PMS5003;50547;49.498;0.092;2023-09-19T12:08:52;10;10;
64229;PMS5003;50547;49.498;0.092;2023-09-19T12:11:22;10;10;
64229;PMS5003;50547;49.498;0.092;2023-09-19T12:13:54;10;10;
64229;PMS5003;50547;49.498;0.092;2023-09-19T12:16:23;10;10;
64229;PMS5003;50547;49.498;0.092;2023-09-19T12:18:53;10;10;
64229;PMS5003;50547;49.498;0.092;2023-09-19T12:21:24;10;10;
64229;PMS5003;50547;49.498;0.092;2023-09-19T12:24:12;10;10;
64229;PMS5003;50547;49.498;0.092;2023-09-19T12:26:42;11;11;
64229;PMS5003;50547;49.498;0.092;2023-09-19T12:29:13;10;10;
64229;PMS5003;50547;49.498;0.092;2023-09-19T12:31:51;10;10;
64229;PMS5003;50547;49.498;0.092;2023-09-19T12:34:22;10;10;
64229;PMS5003;50547;49.498;0.092;2023-09-19T12:37:08;10;10;
64229;PMS5003;50547;49.498;0.092;2023-09-19T12:39:39;10;10;
64229;PMS5003;50547;49.498;0.092;2023-09-19T12:42:10;10;10;
64229;PMS5003;50547;49.498;0.092;2023-09-19T12:44:40;10;10;
64229;PMS5003;50547;49.498;0.092;2023-09-19T12:47:11;10;10;
64229;PMS5003;50547;49.498;0.092;2023-09-19T12:50:18;10;10;
64229;PMS5003;50547;49.498;0.092;2023-09-19T12:52:48;10;10;
64229;PMS5003;50547;49.498;0.092;2023-09-19T12:55:20;10;10;
64229;PMS5003;50547;49.498;0.092;2023-09-19T12:58:22;10;10;
64229;PMS5003;50547;49.498;0.092;2023-09-19T13:00:52;10;10;
64229;PMS5003;50547;49.498;0.092;2023-09-19T13:03:25;10;10;
64229;PMS5003;50547;49.498;0.092;2023-09-19T13:05:55;10;10;
64229;PMS5003;50547;49.498;0.092;2023-09-19T13:08:26;10;10;
64229;PMS5003;50547;49.498;0.092;2023-09-19T13:11:02;10;10;
64229;PMS5003;50547;49.498;0.092;2023-09-19T13:13:32;10;10;
64229;PMS5003;50547;49.498;0.092;2023-09-19T13:16:02;10;10;
64229;PMS5003;50547;49.498;0.092;2023-09-19T13:18:31;10;10;
64229;PMS5003;50547;49.498;0.092;2023-09-19T13:21:08;10;10;
64229;PMS5003;50547;49.498;0.092;2023-09-19T13:23:37;10;10;
64229;PMS5003;50547;49.498;0.092;2023-09-19T13:26:11;10;10;
64229;PMS5003;50547;49.498;0.092;2023-09-19T13:28:41;10;10;
64229;PMS5003;50547;49.498;0.092;2023-09-19T13:31:10;10;10;
64229;PMS5003;50547;49.498;0.092;2023-09-19T13:33:42;10;10;
64229;PMS5003;50547;49.498;0.092;2023-09-19T13:36:12;10;10;
64229;PMS5003;50547;49.498;0.092;2023-09-19T13:38:41;10;10;
64229;PMS5003;50547;49.498;0.092;2023-09-19T13:41:10;10;10;
64229;PMS5003;50547;49.498;0.092;2023-09-19T13:43:40;10;10;
64229;PMS5003;50547;49.498;0.092;2023-09-19T13:46:09;10;10;
64229;PMS5003;50547;49.498;0.092;2023-09-19T13:48:38;10;10;
64229;PMS5003;50547;49.498;0.092;2023-09-19T13:51:07;10;10;
64229;PMS5003;50547;49.498;0.092;2023-09-19T13:53:36;9;9;
64229;PMS5003;50547;49.498;0.092;2023-09-19T13:56:05;10;10;
64229;PMS5003;50547;49.498;0.092;2023-09-19T13:58:34;10;10;
64229;PMS5003;50547;49.498;0.092;2023-09-19T14:01:03;10;10;
64229;PMS5003;50547;49.498;0.092;2023-09-19T14:03:32;8;8;
64229;PMS5003;50547;49.498;0.092;2023-09-19T14:06:02;10;10;
64229;PMS5003;50547;49.498;0.092;2023-09-19T14:08:31;9;9;
64229;PMS5003;50547;49.498;0.092;2023-09-19T14:11:05;8;8;
64229;PMS5003;50547;49.498;0.092;2023-09-19T14:13:34;8;8;
64229;PMS5003;50547;49.498;0.092;2023-09-19T14:16:03;9;9;
64229;PMS5003;50547;49.498;0.092;2023-09-19T14:18:30;9;9;
64229;PMS5003;50547;49.498;0.092;2023-09-19T14:21:01;10;10;
64229;PMS5003;50547;49.498;0.092;2023-09-19T14:23:34;10;10;
64229;PMS5003;50547;49.498;0.092;2023-09-19T14:26:04;10;10;
64229;PMS5003;50547;49.498;0.092;2023-09-19T14:28:34;10;10;
64229;PMS5003;50547;49.498;0.092;2023-09-19T14:31:03;9;9;
64229;PMS5003;50547;49.498;0.092;2023-09-19T14:33:34;8;8;
64229;PMS5003;50547;49.498;0.092;2023-09-19T14:36:03;10;10;
64229;PMS5003;50547;49.498;0.092;2023-09-19T14:38:33;10;10;
64229;PMS5003;50547;49.498;0.092;2023-09-19T14:41:02;10;10;
64229;PMS5003;50547;49.498;0.092;2023-09-19T14:43:32;8;8;
64229;PMS5003;50547;49.498;0.092;2023-09-19T14:46:03;8;8;
64229;PMS5003;50547;49.498;0.092;2023-09-19T14:48:33;10;10;
64229;PMS5003;50547;49.498;0.092;2023-09-19T14:51:01;8;8;
64229;PMS5003;50547;49.498;0.092;2023-09-19T14:53:31;10;10;
64229;PMS5003;50547;49.498;0.092;2023-09-19T14:56:01;8;8;
64229;PMS5003;50547;49.498;0.092;2023-09-19T14:59:10;8;8;
64229;PMS5003;50547;49.498;0.092;2023-09-19T15:01:39;10;10;
64229;PMS5003;50547;49.498;0.092;2023-09-19T15:04:08;9;9;
64229;PMS5003;50547;49.498;0.092;2023-09-19T15:06:35;8;8;
64229;PMS5003;50547;49.498;0.092;2023-09-19T15:09:04;9;9;
64229;PMS5003;50547;49.498;0.092;2023-09-19T15:11:34;11;11;
64229;PMS5003;50547;49.498;0.092;2023-09-19T15:14:03;10;10;
64229;PMS5003;50547;49.498;0.092;2023-09-19T15:16:33;10;10;
64229;PMS5003;50547;49.498;0.092;2023-09-19T15:19:02;11;11;
64229;PMS5003;50547;49.498;0.092;2023-09-19T15:21:31;9;9;
64229;PMS5003;50547;49.498;0.092;2023-09-19T15:24:00;10;10;
64229;PMS5003;50547;49.498;0.092;2023-09-19T15:26:29;8;8;
64229;PMS5003;50547;49.498;0.092;2023-09-19T15:28:58;10;10;
64229;PMS5003;50547;49.498;0.092;2023-09-19T15:31:28;8;8;
64229;PMS5003;50547;49.498;0.092;2023-09-19T15:33:53;10;10;
64229;PMS5003;50547;49.498;0.092;2023-09-19T15:36:22;10;10;
64229;PMS5003;50547;49.498;0.092;2023-09-19T15:38:56;10;10;
64229;PMS5003;50547;49.498;0.092;2023-09-19T15:41:27;10;10;
64229;PMS5003;50547;49.498;0.092;2023-09-19T15:43:59;8;8;
64229;PMS5003;50547;49.498;0.092;2023-09-19T15:46:30;9;9;
64229;PMS5003;50547;49.498;0.092;2023-09-19T15:49:01;8;8;
64229;PMS5003;50547;49.498;0.092;2023-09-19T15:51:31;10;10;
64229;PMS5003;50547;49.498;0.092;2023-09-19T15:54:01;10;10;
64229;PMS5003;50547;49.498;0.092;2023-09-19T15:56:35;10;10;
64229;PMS5003;50547;49.498;0.092;2023-09-19T15:59:04;8;8;
64229;PMS5003;50547;49.498;0.092;2023-09-19T16:01:33;10;10;
64229;PMS5003;50547;49.498;0.092;2023-09-19T16:04:03;10;10;
64229;PMS5003;50547;49.498;0.092;2023-09-19T16:06:32;10;10;
64229;PMS5003;50547;49.498;0.092;2023-09-19T16:09:02;10;10;
64229;PMS5003;50547;49.498;0.092;2023-09-19T16:11:32;10;10;
64229;PMS5003;50547;49.498;0.092;2023-09-19T16:14:03;10;10;
64229;PMS5003;50547;49.498;0.092;2023-09-19T16:16:32;10;10;
64229;PMS5003;50547;49.498;0.092;2023-09-19T16:19:02;10;10;
64229;PMS5003;50547;49.498;0.092;2023-09-19T16:21:32;10;10;
64229;PMS5003;50547;49.498;0.092;2023-09-19T16:24:02;10;10;
64229;PMS5003;50547;49.498;0.092;2023-09-19T16:26:32;10;10;
64229;PMS5003;50547;49.498;0.092;2023-09-19T16:29:01;10;10;
64229;PMS5003;50547;49.498;0.092;2023-09-19T16:31:31;10;10;
64229;PMS5003;50547;49.498;0.092;2023-09-19T16:34:00;10;10;
64229;PMS5003;50547;49.498;0.092;2023-09-19T16:36:30;10;10;
64229;PMS5003;50547;49.498;0.092;2023-09-19T16:38:59;10;10;
64229;PMS5003;50547;49.498;0.092;2023-09-19T16:41:28;10;10;
64229;PMS5003;50547;49.498;0.092;2023-09-19T16:43:57;10;10;
64229;PMS5003;50547;49.498;0.092;2023-09-19T16:46:27;10;10;
64229;PMS5003;50547;49.498;0.092;2023-09-19T16:48:56;10;10;
64229;PMS5003;50547;49.498;0.092;2023-09-19T16:51:25;10;10;
64229;PMS5003;50547;49.498;0.092;2023-09-19T16:53:54;10;10;
64229;PMS5003;50547;49.498;0.092;2023-09-19T16:56:24;10;10;
64229;PMS5003;50547;49.498;0.092;2023-09-19T16:58:53;10;10;
64229;PMS5003;50547;49.498;0.092;2023-09-19T17:01:22;10;10;
64229;PMS5003;50547;49.498;0.092;2023-09-19T17:03:51;10;10;
64229;PMS5003;50547;49.498;0.092;2023-09-19T17:06:21;10;10;
64229;PMS5003;50547;49.498;0.092;2023-09-19T17:08:50;10;10;
64229;PMS5003;50547;49.498;0.092;2023-09-19T17:11:19;10;10;